sensor_id;sensor_type;location;lat;lon;timestamp;P1;durP1;ratioP1;P2;durP2;ratioP2
823;SDS011;373;49.342;8.146;2023-03-14T00:00:04;1.30;;;0.65;;
823;SDS011;373;49.342;8.146;2023-03-14T00:02:35;1.25;;;0.77;;
823;SDS011;373;49.342;8.146;2023-03-14T00:05:02;2.45;;;0.70;;
823;SDS011;373;49.342;8.146;2023-03-14T00:07:33;2.13;;;1.08;;
823;SDS011;373;49.342;8.146;2023-03-14T00:10:02;1.85;;;0.80;;
823;SDS011;373;49.342;8.146;2023-03-14T00:12:30;1.10;;;0.80;;
823;SDS011;373;49.342;8.146;2023-03-14T00:14:58;0.77;;;0.70;;
823;SDS011;373;49.342;8.146;2023-03-14T00:17:25;1.58;;;0.50;;
823;SDS011;373;49.342;8.146;2023-03-14T00:19:52;1.48;;;0.80;;
823;SDS011;373;49.342;8.146;2023-03-14T00:22:19;3.08;;;1.00;;
823;SDS011;373;49.342;8.146;2023-03-14T00:24:48;2.92;;;1.00;;
823;SDS011;373;49.342;8.146;2023-03-14T00:27:15;1.52;;;1.05;;
823;SDS011;373;49.342;8.146;2023-03-14T00:29:43;3.90;;;0.93;;
823;SDS011;373;49.342;8.146;2023-03-14T00:32:10;0.90;;;0.70;;
823;SDS011;373;49.342;8.146;2023-03-14T00:34:39;1.42;;;0.98;;
823;SDS011;373;49.342;8.146;2023-03-14T00:37:06;1.67;;;0.77;;
823;SDS011;373;49.342;8.146;2023-03-14T00:39:33;2.30;;;0.65;;
823;SDS011;373;49.342;8.146;2023-03-14T00:42:01;4.35;;;0.70;;
823;SDS011;373;49.342;8.146;2023-03-14T00:44:28;2.92;;;1.27;;
823;SDS011;373;49.342;8.146;2023-03-14T00:46:57;2.35;;;0.80;;
823;SDS011;373;49.342;8.146;2023-03-14T00:49:24;1.35;;;1.02;;
823;SDS011;373;49.342;8.146;2023-03-14T00:51:51;2.33;;;0.75;;
823;SDS011;373;49.342;8.146;2023-03-14T00:54:18;3.70;;;1.02;;
823;SDS011;373;49.342;8.146;2023-03-14T00:56:46;1.98;;;1.00;;
823;SDS011;373;49.342;8.146;2023-03-14T00:59:14;3.42;;;1.10;;
823;SDS011;373;49.342;8.146;2023-03-14T01:01:42;2.35;;;1.05;;
823;SDS011;373;49.342;8.146;2023-03-14T01:04:09;1.20;;;0.80;;
823;SDS011;373;49.342;8.146;2023-03-14T01:06:36;2.00;;;0.90;;
823;SDS011;373;49.342;8.146;2023-03-14T01:09:03;3.58;;;1.00;;
823;SDS011;373;49.342;8.146;2023-03-14T01:11:32;2.90;;;1.35;;
823;SDS011;373;49.342;8.146;2023-03-14T01:14:00;1.83;;;0.63;;
823;SDS011;373;49.342;8.146;2023-03-14T01:16:30;1.33;;;0.55;;
823;SDS011;373;49.342;8.146;2023-03-14T01:19:00;2.25;;;0.70;;
823;SDS011;373;49.342;8.146;2023-03-14T01:21:28;1.92;;;0.73;;
823;SDS011;373;49.342;8.146;2023-03-14T01:23:57;2.42;;;0.82;;
823;SDS011;373;49.342;8.146;2023-03-14T01:26:26;2.35;;;0.70;;
823;SDS011;373;49.342;8.146;2023-03-14T01:28:55;1.42;;;0.70;;
823;SDS011;373;49.342;8.146;2023-03-14T01:31:23;1.77;;;0.90;;
823;SDS011;373;49.342;8.146;2023-03-14T01:33:53;2.63;;;1.05;;
823;SDS011;373;49.342;8.146;2023-03-14T01:36:20;2.45;;;0.88;;
823;SDS011;373;49.342;8.146;2023-03-14T01:38:47;2.00;;;1.00;;
823;SDS011;373;49.342;8.146;2023-03-14T01:41:16;1.45;;;0.95;;
823;SDS011;373;49.342;8.146;2023-03-14T01:43:46;1.85;;;0.75;;
823;SDS011;373;49.342;8.146;2023-03-14T01:46:25;2.60;;;1.02;;
823;SDS011;373;49.342;8.146;2023-03-14T01:48:59;1.83;;;1.20;;
823;SDS011;373;49.342;8.146;2023-03-14T01:51:33;2.65;;;1.05;;
823;SDS011;373;49.342;8.146;2023-03-14T01:54:06;2.60;;;0.85;;
823;SDS011;373;49.342;8.146;2023-03-14T01:56:38;1.00;;;0.65;;
823;SDS011;373;49.342;8.146;2023-03-14T01:59:07;1.02;;;0.65;;
823;SDS011;373;49.342;8.146;2023-03-14T02:01:37;2.15;;;0.88;;
823;SDS011;373;49.342;8.146;2023-03-14T02:04:08;3.13;;;0.80;;
823;SDS011;373;49.342;8.146;2023-03-14T02:06:42;1.67;;;0.80;;
823;SDS011;373;49.342;8.146;2023-03-14T02:09:16;2.28;;;1.10;;
823;SDS011;373;49.342;8.146;2023-03-14T02:11:43;2.95;;;0.90;;
823;SDS011;373;49.342;8.146;2023-03-14T02:14:31;2.00;;;0.82;;
823;SDS011;373;49.342;8.146;2023-03-14T02:17:20;3.08;;;0.90;;
823;SDS011;373;49.342;8.146;2023-03-14T02:20:13;1.50;;;0.70;;
823;SDS011;373;49.342;8.146;2023-03-14T02:22:54;2.33;;;0.70;;
823;SDS011;373;49.342;8.146;2023-03-14T02:25:24;1.70;;;0.60;;
823;SDS011;373;49.342;8.146;2023-03-14T02:27:59;1.83;;;0.73;;
823;SDS011;373;49.342;8.146;2023-03-14T02:30:28;3.72;;;0.90;;
823;SDS011;373;49.342;8.146;2023-03-14T02:32:59;0.80;;;0.60;;
823;SDS011;373;49.342;8.146;2023-03-14T02:35:29;2.50;;;0.75;;
823;SDS011;373;49.342;8.146;2023-03-14T02:38:03;2.50;;;1.35;;
823;SDS011;373;49.342;8.146;2023-03-14T02:40:38;3.63;;;1.00;;
823;SDS011;373;49.342;8.146;2023-03-14T02:43:07;3.53;;;0.80;;
823;SDS011;373;49.342;8.146;2023-03-14T02:45:43;2.17;;;0.60;;
823;SDS011;373;49.342;8.146;2023-03-14T02:48:15;2.17;;;1.00;;
823;SDS011;373;49.342;8.146;2023-03-14T02:50:46;1.77;;;0.80;;
823;SDS011;373;49.342;8.146;2023-03-14T02:53:16;3.40;;;0.80;;
823;SDS011;373;49.342;8.146;2023-03-14T02:55:46;3.00;;;1.08;;
823;SDS011;373;49.342;8.146;2023-03-14T02:58:17;2.50;;;1.00;;
823;SDS011;373;49.342;8.146;2023-03-14T03:00:48;3.15;;;0.90;;
823;SDS011;373;49.342;8.146;2023-03-14T03:03:16;2.35;;;0.98;;
823;SDS011;373;49.342;8.146;2023-03-14T03:05:43;1.63;;;0.60;;
823;SDS011;373;49.342;8.146;2023-03-14T03:08:15;1.67;;;0.73;;
823;SDS011;373;49.342;8.146;2023-03-14T03:10:42;3.13;;;0.70;;
823;SDS011;373;49.342;8.146;2023-03-14T03:13:10;1.83;;;0.85;;
823;SDS011;373;49.342;8.146;2023-03-14T03:15:38;2.75;;;0.80;;
823;SDS011;373;49.342;8.146;2023-03-14T03:18:06;2.38;;;0.80;;
823;SDS011;373;49.342;8.146;2023-03-14T03:20:33;1.38;;;0.60;;
823;SDS011;373;49.342;8.146;2023-03-14T03:23:01;2.10;;;0.95;;
823;SDS011;373;49.342;8.146;2023-03-14T03:25:29;3.50;;;0.93;;
823;SDS011;373;49.342;8.146;2023-03-14T03:27:56;3.03;;;0.93;;
823;SDS011;373;49.342;8.146;2023-03-14T03:30:24;3.75;;;1.25;;
823;SDS011;373;49.342;8.146;2023-03-14T03:32:52;2.05;;;0.82;;
823;SDS011;373;49.342;8.146;2023-03-14T03:35:19;2.83;;;0.90;;
823;SDS011;373;49.342;8.146;2023-03-14T03:37:46;1.60;;;0.80;;
823;SDS011;373;49.342;8.146;2023-03-14T03:40:13;1.80;;;0.85;;
823;SDS011;373;49.342;8.146;2023-03-14T03:42:41;1.65;;;0.88;;
823;SDS011;373;49.342;8.146;2023-03-14T03:45:09;1.70;;;0.60;;
823;SDS011;373;49.342;8.146;2023-03-14T03:47:45;3.28;;;1.00;;
823;SDS011;373;49.342;8.146;2023-03-14T03:50:14;2.83;;;0.60;;
823;SDS011;373;49.342;8.146;2023-03-14T03:52:41;3.47;;;0.70;;
823;SDS011;373;49.342;8.146;2023-03-14T03:55:08;1.60;;;0.98;;
823;SDS011;373;49.342;8.146;2023-03-14T03:57:35;1.45;;;0.70;;
823;SDS011;373;49.342;8.146;2023-03-14T04:00:03;1.48;;;0.85;;
823;SDS011;373;49.342;8.146;2023-03-14T04:02:39;1.50;;;0.73;;
823;SDS011;373;49.342;8.146;2023-03-14T04:05:08;0.52;;;0.50;;
823;SDS011;373;49.342;8.146;2023-03-14T04:07:42;2.47;;;0.60;;
823;SDS011;373;49.342;8.146;2023-03-14T04:10:10;2.47;;;1.10;;
823;SDS011;373;49.342;8.146;2023-03-14T04:12:41;3.67;;;0.80;;
823;SDS011;373;49.342;8.146;2023-03-14T04:15:17;1.50;;;0.75;;
823;SDS011;373;49.342;8.146;2023-03-14T04:17:47;2.15;;;0.77;;
823;SDS011;373;49.342;8.146;2023-03-14T04:20:15;1.58;;;0.70;;
823;SDS011;373;49.342;8.146;2023-03-14T04:22:43;1.38;;;0.85;;
823;SDS011;373;49.342;8.146;2023-03-14T04:25:10;4.32;;;1.25;;
823;SDS011;373;49.342;8.146;2023-03-14T04:27:43;3.10;;;0.90;;
823;SDS011;373;49.342;8.146;2023-03-14T04:30:18;3.90;;;1.00;;
823;SDS011;373;49.342;8.146;2023-03-14T04:32:57;1.30;;;0.73;;
823;SDS011;373;49.342;8.146;2023-03-14T04:35:26;1.02;;;0.80;;
823;SDS011;373;49.342;8.146;2023-03-14T04:37:59;1.95;;;0.90;;
823;SDS011;373;49.342;8.146;2023-03-14T04:40:29;1.92;;;0.50;;
823;SDS011;373;49.342;8.146;2023-03-14T04:43:00;2.70;;;0.80;;
823;SDS011;373;49.342;8.146;2023-03-14T04:45:28;2.92;;;0.60;;
823;SDS011;373;49.342;8.146;2023-03-14T04:47:58;1.58;;;0.60;;
823;SDS011;373;49.342;8.146;2023-03-14T04:50:25;1.48;;;0.50;;
823;SDS011;373;49.342;8.146;2023-03-14T04:52:52;1.17;;;0.43;;
823;SDS011;373;49.342;8.146;2023-03-14T04:55:21;1.85;;;0.85;;
823;SDS011;373;49.342;8.146;2023-03-14T04:57:48;3.17;;;0.60;;
823;SDS011;373;49.342;8.146;2023-03-14T05:00:15;1.92;;;0.73;;
823;SDS011;373;49.342;8.146;2023-03-14T05:02:49;1.52;;;0.50;;
823;SDS011;373;49.342;8.146;2023-03-14T05:05:40;0.85;;;0.43;;
823;SDS011;373;49.342;8.146;2023-03-14T05:08:25;0.90;;;0.32;;
823;SDS011;373;49.342;8.146;2023-03-14T05:11:11;0.70;;;0.60;;
823;SDS011;373;49.342;8.146;2023-03-14T05:14:01;2.83;;;0.70;;
823;SDS011;373;49.342;8.146;2023-03-14T05:16:52;2.60;;;0.40;;
823;SDS011;373;49.342;8.146;2023-03-14T05:19:46;2.13;;;0.45;;
823;SDS011;373;49.342;8.146;2023-03-14T05:22:42;1.33;;;0.45;;
823;SDS011;373;49.342;8.146;2023-03-14T05:25:32;1.60;;;0.40;;
823;SDS011;373;49.342;8.146;2023-03-14T05:28:09;1.35;;;0.50;;
823;SDS011;373;49.342;8.146;2023-03-14T05:31:05;1.30;;;0.88;;
823;SDS011;373;49.342;8.146;2023-03-14T05:34:05;1.40;;;0.60;;
823;SDS011;373;49.342;8.146;2023-03-14T05:36:43;1.33;;;0.55;;
823;SDS011;373;49.342;8.146;2023-03-14T05:39:10;3.20;;;0.65;;
823;SDS011;373;49.342;8.146;2023-03-14T05:42:09;1.75;;;0.60;;
823;SDS011;373;49.342;8.146;2023-03-14T05:45:10;1.58;;;0.70;;
823;SDS011;373;49.342;8.146;2023-03-14T05:48:06;2.60;;;0.90;;
823;SDS011;373;49.342;8.146;2023-03-14T05:51:09;1.48;;;0.63;;
823;SDS011;373;49.342;8.146;2023-03-14T05:54:01;6.70;;;1.10;;
823;SDS011;373;49.342;8.146;2023-03-14T05:56:36;0.93;;;0.47;;
823;SDS011;373;49.342;8.146;2023-03-14T05:59:15;1.55;;;0.57;;
823;SDS011;373;49.342;8.146;2023-03-14T06:01:54;2.53;;;0.50;;
823;SDS011;373;49.342;8.146;2023-03-14T06:04:24;3.08;;;1.13;;
823;SDS011;373;49.342;8.146;2023-03-14T06:06:55;2.03;;;0.80;;
823;SDS011;373;49.342;8.146;2023-03-14T06:09:22;2.15;;;0.70;;
823;SDS011;373;49.342;8.146;2023-03-14T06:11:54;2.92;;;0.75;;
823;SDS011;373;49.342;8.146;2023-03-14T06:14:25;1.88;;;0.65;;
823;SDS011;373;49.342;8.146;2023-03-14T06:16:54;3.28;;;0.75;;
823;SDS011;373;49.342;8.146;2023-03-14T06:19:23;2.60;;;0.65;;
823;SDS011;373;49.342;8.146;2023-03-14T06:21:52;0.93;;;0.50;;
823;SDS011;373;49.342;8.146;2023-03-14T06:24:19;2.00;;;0.50;;
823;SDS011;373;49.342;8.146;2023-03-14T06:26:51;2.15;;;0.60;;
823;SDS011;373;49.342;8.146;2023-03-14T06:29:18;1.35;;;0.40;;
823;SDS011;373;49.342;8.146;2023-03-14T06:31:45;0.88;;;0.40;;
823;SDS011;373;49.342;8.146;2023-03-14T06:34:16;1.77;;;0.38;;
823;SDS011;373;49.342;8.146;2023-03-14T06:36:43;2.97;;;0.60;;
823;SDS011;373;49.342;8.146;2023-03-14T06:39:11;2.50;;;0.68;;
823;SDS011;373;49.342;8.146;2023-03-14T06:41:42;1.65;;;0.60;;
823;SDS011;373;49.342;8.146;2023-03-14T06:44:10;3.47;;;0.50;;
823;SDS011;373;49.342;8.146;2023-03-14T06:46:37;1.33;;;0.52;;
823;SDS011;373;49.342;8.146;2023-03-14T06:49:04;1.10;;;0.52;;
823;SDS011;373;49.342;8.146;2023-03-14T06:51:34;0.80;;;0.40;;
823;SDS011;373;49.342;8.146;2023-03-14T06:54:03;1.13;;;0.52;;
823;SDS011;373;49.342;8.146;2023-03-14T06:56:31;1.33;;;0.60;;
823;SDS011;373;49.342;8.146;2023-03-14T06:58:58;2.65;;;0.70;;
823;SDS011;373;49.342;8.146;2023-03-14T07:01:28;3.05;;;0.70;;
823;SDS011;373;49.342;8.146;2023-03-14T07:04:04;1.48;;;0.35;;
823;SDS011;373;49.342;8.146;2023-03-14T07:06:34;2.08;;;0.50;;
823;SDS011;373;49.342;8.146;2023-03-14T07:09:01;0.30;;;0.20;;
823;SDS011;373;49.342;8.146;2023-03-14T07:11:28;1.85;;;0.30;;
823;SDS011;373;49.342;8.146;2023-03-14T07:13:56;1.55;;;0.40;;
823;SDS011;373;49.342;8.146;2023-03-14T07:16:24;0.93;;;0.20;;
823;SDS011;373;49.342;8.146;2023-03-14T07:18:54;1.10;;;0.68;;
823;SDS011;373;49.342;8.146;2023-03-14T07:21:21;1.17;;;0.30;;
823;SDS011;373;49.342;8.146;2023-03-14T07:23:50;1.08;;;0.30;;
823;SDS011;373;49.342;8.146;2023-03-14T07:26:17;1.15;;;0.60;;
823;SDS011;373;49.342;8.146;2023-03-14T07:28:49;2.00;;;0.68;;
823;SDS011;373;49.342;8.146;2023-03-14T07:31:18;1.25;;;0.50;;
823;SDS011;373;49.342;8.146;2023-03-14T07:33:46;1.00;;;0.50;;
823;SDS011;373;49.342;8.146;2023-03-14T07:36:13;1.30;;;0.68;;
823;SDS011;373;49.342;8.146;2023-03-14T07:38:43;1.83;;;0.60;;
823;SDS011;373;49.342;8.146;2023-03-14T07:41:28;1.55;;;0.60;;
823;SDS011;373;49.342;8.146;2023-03-14T07:44:14;1.77;;;0.40;;
823;SDS011;373;49.342;8.146;2023-03-14T07:46:41;2.50;;;0.50;;
823;SDS011;373;49.342;8.146;2023-03-14T07:49:08;1.73;;;0.28;;
823;SDS011;373;49.342;8.146;2023-03-14T07:51:36;1.40;;;0.57;;
823;SDS011;373;49.342;8.146;2023-03-14T07:54:03;1.38;;;0.57;;
823;SDS011;373;49.342;8.146;2023-03-14T07:56:31;0.32;;;0.20;;
823;SDS011;373;49.342;8.146;2023-03-14T07:58:58;0.68;;;0.20;;
823;SDS011;373;49.342;8.146;2023-03-14T08:01:27;1.13;;;0.50;;
823;SDS011;373;49.342;8.146;2023-03-14T08:03:54;0.93;;;0.47;;
823;SDS011;373;49.342;8.146;2023-03-14T08:06:21;1.20;;;0.35;;
823;SDS011;373;49.342;8.146;2023-03-14T08:08:48;0.88;;;0.40;;
823;SDS011;373;49.342;8.146;2023-03-14T08:11:15;0.77;;;0.30;;
823;SDS011;373;49.342;8.146;2023-03-14T08:13:44;0.65;;;0.20;;
823;SDS011;373;49.342;8.146;2023-03-14T08:16:15;1.95;;;0.40;;
823;SDS011;373;49.342;8.146;2023-03-14T08:18:42;1.08;;;0.30;;
823;SDS011;373;49.342;8.146;2023-03-14T08:21:10;0.30;;;0.30;;
823;SDS011;373;49.342;8.146;2023-03-14T08:23:37;1.52;;;0.30;;
823;SDS011;373;49.342;8.146;2023-03-14T08:26:05;1.65;;;0.40;;
823;SDS011;373;49.342;8.146;2023-03-14T08:28:33;0.93;;;0.15;;
823;SDS011;373;49.342;8.146;2023-03-14T08:31:02;1.23;;;0.40;;
823;SDS011;373;49.342;8.146;2023-03-14T08:33:29;0.52;;;0.20;;
823;SDS011;373;49.342;8.146;2023-03-14T08:35:57;1.58;;;0.95;;
823;SDS011;373;49.342;8.146;2023-03-14T08:38:26;0.25;;;0.20;;
823;SDS011;373;49.342;8.146;2023-03-14T08:40:56;0.60;;;0.32;;
823;SDS011;373;49.342;8.146;2023-03-14T08:43:24;0.85;;;0.30;;
823;SDS011;373;49.342;8.146;2023-03-14T08:45:51;0.98;;;0.30;;
823;SDS011;373;49.342;8.146;2023-03-14T08:48:19;0.82;;;0.20;;
823;SDS011;373;49.342;8.146;2023-03-14T08:50:47;0.20;;;0.20;;
823;SDS011;373;49.342;8.146;2023-03-14T08:53:14;0.65;;;0.20;;
823;SDS011;373;49.342;8.146;2023-03-14T08:55:41;0.20;;;0.20;;
823;SDS011;373;49.342;8.146;2023-03-14T08:58:08;0.38;;;0.20;;
823;SDS011;373;49.342;8.146;2023-03-14T09:00:35;2.05;;;1.08;;
823;SDS011;373;49.342;8.146;2023-03-14T09:03:03;0.03;;;0.03;;
823;SDS011;373;49.342;8.146;2023-03-14T09:05:33;0.20;;;0.10;;
823;SDS011;373;49.342;8.146;2023-03-14T09:08:00;1.83;;;0.30;;
823;SDS011;373;49.342;8.146;2023-03-14T09:10:28;0.40;;;0.28;;
823;SDS011;373;49.342;8.146;2023-03-14T09:12:55;0.75;;;0.38;;
823;SDS011;373;49.342;8.146;2023-03-14T09:15:23;1.05;;;0.17;;
823;SDS011;373;49.342;8.146;2023-03-14T09:17:51;1.20;;;0.35;;
823;SDS011;373;49.342;8.146;2023-03-14T09:20:18;1.65;;;0.10;;
823;SDS011;373;49.342;8.146;2023-03-14T09:22:47;0.35;;;0.10;;
823;SDS011;373;49.342;8.146;2023-03-14T09:25:14;0.43;;;0.25;;
823;SDS011;373;49.342;8.146;2023-03-14T09:27:42;0.90;;;0.10;;
823;SDS011;373;49.342;8.146;2023-03-14T09:30:09;0.35;;;0.30;;
823;SDS011;373;49.342;8.146;2023-03-14T09:32:37;0.08;;;0.08;;
823;SDS011;373;49.342;8.146;2023-03-14T09:35:04;0.68;;;0.25;;
823;SDS011;373;49.342;8.146;2023-03-14T09:37:33;0.98;;;0.65;;
823;SDS011;373;49.342;8.146;2023-03-14T09:40:02;2.28;;;0.30;;
823;SDS011;373;49.342;8.146;2023-03-14T09:42:36;0.10;;;0.10;;
823;SDS011;373;49.342;8.146;2023-03-14T09:45:06;0.10;;;0.00;;
823;SDS011;373;49.342;8.146;2023-03-14T09:47:37;0.40;;;0.20;;
823;SDS011;373;49.342;8.146;2023-03-14T09:50:09;0.77;;;0.15;;
823;SDS011;373;49.342;8.146;2023-03-14T09:52:40;0.10;;;0.10;;
823;SDS011;373;49.342;8.146;2023-03-14T09:55:13;0.43;;;0.10;;
823;SDS011;373;49.342;8.146;2023-03-14T09:57:42;0.35;;;0.10;;
823;SDS011;373;49.342;8.146;2023-03-14T10:00:14;0.25;;;0.20;;
823;SDS011;373;49.342;8.146;2023-03-14T10:02:45;0.55;;;0.10;;
823;SDS011;373;49.342;8.146;2023-03-14T10:05:18;0.52;;;0.20;;
823;SDS011;373;49.342;8.146;2023-03-14T10:07:47;0.47;;;0.10;;
823;SDS011;373;49.342;8.146;2023-03-14T10:10:18;0.00;;;0.00;;
823;SDS011;373;49.342;8.146;2023-03-14T10:12:46;0.20;;;0.20;;
823;SDS011;373;49.342;8.146;2023-03-14T10:15:22;0.13;;;0.13;;
823;SDS011;373;49.342;8.146;2023-03-14T10:17:52;0.10;;;0.10;;
823;SDS011;373;49.342;8.146;2023-03-14T10:20:27;0.77;;;0.20;;
823;SDS011;373;49.342;8.146;2023-03-14T10:22:58;0.30;;;0.10;;
823;SDS011;373;49.342;8.146;2023-03-14T10:25:29;0.10;;;0.10;;
823;SDS011;373;49.342;8.146;2023-03-14T10:27:57;0.28;;;0.20;;
823;SDS011;373;49.342;8.146;2023-03-14T10:30:33;0.20;;;0.10;;
823;SDS011;373;49.342;8.146;2023-03-14T10:33:10;0.60;;;0.10;;
823;SDS011;373;49.342;8.146;2023-03-14T10:35:45;0.20;;;0.13;;
823;SDS011;373;49.342;8.146;2023-03-14T10:38:18;0.30;;;0.20;;
823;SDS011;373;49.342;8.146;2023-03-14T10:40:48;0.55;;;0.20;;
823;SDS011;373;49.342;8.146;2023-03-14T10:43:18;0.10;;;0.10;;
823;SDS011;373;49.342;8.146;2023-03-14T10:45:52;0.17;;;0.17;;
823;SDS011;373;49.342;8.146;2023-03-14T10:48:24;0.52;;;0.20;;
823;SDS011;373;49.342;8.146;2023-03-14T10:50:59;0.30;;;0.10;;
823;SDS011;373;49.342;8.146;2023-03-14T10:53:34;0.00;;;0.00;;
823;SDS011;373;49.342;8.146;2023-03-14T10:56:09;0.30;;;0.20;;
823;SDS011;373;49.342;8.146;2023-03-14T10:58:40;0.10;;;0.00;;
823;SDS011;373;49.342;8.146;2023-03-14T11:01:21;0.10;;;0.10;;
823;SDS011;373;49.342;8.146;2023-03-14T11:04:01;0.57;;;0.20;;
823;SDS011;373;49.342;8.146;2023-03-14T11:06:34;0.13;;;0.10;;
823;SDS011;373;49.342;8.146;2023-03-14T11:09:10;0.20;;;0.20;;
823;SDS011;373;49.342;8.146;2023-03-14T11:11:44;0.55;;;0.55;;
823;SDS011;373;49.342;8.146;2023-03-14T11:14:16;0.60;;;0.60;;
823;SDS011;373;49.342;8.146;2023-03-14T11:16:52;0.70;;;0.70;;
823;SDS011;373;49.342;8.146;2023-03-14T11:19:27;0.85;;;0.50;;
823;SDS011;373;49.342;8.146;2023-03-14T11:22:04;0.40;;;0.40;;
823;SDS011;373;49.342;8.146;2023-03-14T11:24:46;0.68;;;0.30;;
823;SDS011;373;49.342;8.146;2023-03-14T11:27:25;0.47;;;0.40;;
823;SDS011;373;49.342;8.146;2023-03-14T11:29:58;0.40;;;0.40;;
823;SDS011;373;49.342;8.146;2023-03-14T11:32:35;0.20;;;0.20;;
823;SDS011;373;49.342;8.146;2023-03-14T11:35:12;0.32;;;0.32;;
823;SDS011;373;49.342;8.146;2023-03-14T11:37:47;0.20;;;0.20;;
823;SDS011;373;49.342;8.146;2023-03-14T11:40:19;0.77;;;0.32;;
823;SDS011;373;49.342;8.146;2023-03-14T11:42:51;0.65;;;0.20;;
823;SDS011;373;49.342;8.146;2023-03-14T11:45:25;0.20;;;0.20;;
823;SDS011;373;49.342;8.146;2023-03-14T11:47:59;0.22;;;0.22;;
823;SDS011;373;49.342;8.146;2023-03-14T11:50:35;0.55;;;0.30;;
823;SDS011;373;49.342;8.146;2023-03-14T11:53:06;0.73;;;0.30;;
823;SDS011;373;49.342;8.146;2023-03-14T11:55:40;0.55;;;0.40;;
823;SDS011;373;49.342;8.146;2023-03-14T11:58:12;0.52;;;0.30;;
823;SDS011;373;49.342;8.146;2023-03-14T12:00:44;1.02;;;0.40;;
823;SDS011;373;49.342;8.146;2023-03-14T12:03:14;0.57;;;0.50;;
823;SDS011;373;49.342;8.146;2023-03-14T12:05:50;0.55;;;0.20;;
823;SDS011;373;49.342;8.146;2023-03-14T12:11:18;1.08;;;0.73;;
823;SDS011;373;49.342;8.146;2023-03-14T12:13:50;0.40;;;0.40;;
823;SDS011;373;49.342;8.146;2023-03-14T12:19:24;0.50;;;0.50;;
823;SDS011;373;49.342;8.146;2023-03-14T12:21:58;1.10;;;0.63;;
823;SDS011;373;49.342;8.146;2023-03-14T12:24:33;0.57;;;0.40;;
823;SDS011;373;49.342;8.146;2023-03-14T12:27:02;2.60;;;0.90;;
823;SDS011;373;49.342;8.146;2023-03-14T12:29:41;1.85;;;1.17;;
823;SDS011;373;49.342;8.146;2023-03-14T12:32:24;1.45;;;0.80;;
823;SDS011;373;49.342;8.146;2023-03-14T12:34:51;1.02;;;0.90;;
823;SDS011;373;49.342;8.146;2023-03-14T12:37:21;0.88;;;0.70;;
823;SDS011;373;49.342;8.146;2023-03-14T12:39:58;0.98;;;0.88;;
823;SDS011;373;49.342;8.146;2023-03-14T12:42:43;2.08;;;0.93;;
823;SDS011;373;49.342;8.146;2023-03-14T12:45:25;1.17;;;0.60;;
823;SDS011;373;49.342;8.146;2023-03-14T12:47:55;0.60;;;0.60;;
823;SDS011;373;49.342;8.146;2023-03-14T12:50:32;0.82;;;0.50;;
823;SDS011;373;49.342;8.146;2023-03-14T12:56:26;0.47;;;0.47;;
823;SDS011;373;49.342;8.146;2023-03-14T12:59:14;0.50;;;0.50;;
823;SDS011;373;49.342;8.146;2023-03-14T13:01:58;0.65;;;0.65;;
823;SDS011;373;49.342;8.146;2023-03-14T13:04:28;1.63;;;0.70;;
823;SDS011;373;49.342;8.146;2023-03-14T13:06:58;2.50;;;0.70;;
823;SDS011;373;49.342;8.146;2023-03-14T13:09:48;1.05;;;0.70;;
823;SDS011;373;49.342;8.146;2023-03-14T13:12:22;2.45;;;0.63;;
823;SDS011;373;49.342;8.146;2023-03-14T13:14:57;1.05;;;0.50;;
823;SDS011;373;49.342;8.146;2023-03-14T13:17:32;1.98;;;0.52;;
823;SDS011;373;49.342;8.146;2023-03-14T13:20:01;1.48;;;0.50;;
823;SDS011;373;49.342;8.146;2023-03-14T13:22:32;1.25;;;0.32;;
823;SDS011;373;49.342;8.146;2023-03-14T13:25:04;0.70;;;0.50;;
823;SDS011;373;49.342;8.146;2023-03-14T13:27:33;2.05;;;1.08;;
823;SDS011;373;49.342;8.146;2023-03-14T13:30:05;1.27;;;0.52;;
823;SDS011;373;49.342;8.146;2023-03-14T13:32:45;1.40;;;0.98;;
823;SDS011;373;49.342;8.146;2023-03-14T13:35:17;2.17;;;1.30;;
823;SDS011;373;49.342;8.146;2023-03-14T13:37:46;1.00;;;0.60;;
823;SDS011;373;49.342;8.146;2023-03-14T13:40:20;1.52;;;0.50;;
823;SDS011;373;49.342;8.146;2023-03-14T13:43:02;1.65;;;0.57;;
823;SDS011;373;49.342;8.146;2023-03-14T13:45:40;2.50;;;1.00;;
823;SDS011;373;49.342;8.146;2023-03-14T13:48:11;2.58;;;0.70;;
823;SDS011;373;49.342;8.146;2023-03-14T13:50:44;0.73;;;0.45;;
823;SDS011;373;49.342;8.146;2023-03-14T13:53:12;0.93;;;0.50;;
823;SDS011;373;49.342;8.146;2023-03-14T13:55:39;1.10;;;0.60;;
823;SDS011;373;49.342;8.146;2023-03-14T13:58:10;0.70;;;0.40;;
823;SDS011;373;49.342;8.146;2023-03-14T14:00:53;0.57;;;0.47;;
823;SDS011;373;49.342;8.146;2023-03-14T14:03:23;0.75;;;0.40;;
823;SDS011;373;49.342;8.146;2023-03-14T14:05:51;1.05;;;0.65;;
823;SDS011;373;49.342;8.146;2023-03-14T14:08:20;0.70;;;0.70;;
823;SDS011;373;49.342;8.146;2023-03-14T14:10:47;1.88;;;0.80;;
823;SDS011;373;49.342;8.146;2023-03-14T14:13:16;1.98;;;0.70;;
823;SDS011;373;49.342;8.146;2023-03-14T14:15:48;0.60;;;0.47;;
823;SDS011;373;49.342;8.146;2023-03-14T14:18:18;1.00;;;0.55;;
823;SDS011;373;49.342;8.146;2023-03-14T14:20:51;1.27;;;0.47;;
823;SDS011;373;49.342;8.146;2023-03-14T14:23:19;0.50;;;0.32;;
823;SDS011;373;49.342;8.146;2023-03-14T14:25:50;1.67;;;0.50;;
823;SDS011;373;49.342;8.146;2023-03-14T14:28:21;2.85;;;0.60;;
823;SDS011;373;49.342;8.146;2023-03-14T14:30:59;1.40;;;0.80;;
823;SDS011;373;49.342;8.146;2023-03-14T14:33:27;2.03;;;0.57;;
823;SDS011;373;49.342;8.146;2023-03-14T14:35:56;2.47;;;0.50;;
823;SDS011;373;49.342;8.146;2023-03-14T14:38:26;2.33;;;0.60;;
823;SDS011;373;49.342;8.146;2023-03-14T14:40:58;1.90;;;0.60;;
823;SDS011;373;49.342;8.146;2023-03-14T14:43:28;0.88;;;0.50;;
823;SDS011;373;49.342;8.146;2023-03-14T14:46:00;0.68;;;0.38;;
823;SDS011;373;49.342;8.146;2023-03-14T14:48:35;0.95;;;0.60;;
823;SDS011;373;49.342;8.146;2023-03-14T14:51:05;0.90;;;0.32;;
823;SDS011;373;49.342;8.146;2023-03-14T14:53:36;1.45;;;0.45;;
823;SDS011;373;49.342;8.146;2023-03-14T14:56:06;1.17;;;0.50;;
823;SDS011;373;49.342;8.146;2023-03-14T14:58:43;1.88;;;0.45;;
823;SDS011;373;49.342;8.146;2023-03-14T15:01:13;1.23;;;0.70;;
823;SDS011;373;49.342;8.146;2023-03-14T15:03:43;1.42;;;0.43;;
823;SDS011;373;49.342;8.146;2023-03-14T15:06:13;0.68;;;0.40;;
823;SDS011;373;49.342;8.146;2023-03-14T15:08:42;0.85;;;0.35;;
823;SDS011;373;49.342;8.146;2023-03-14T15:11:10;0.80;;;0.50;;
823;SDS011;373;49.342;8.146;2023-03-14T15:13:43;2.65;;;0.82;;
823;SDS011;373;49.342;8.146;2023-03-14T15:16:10;1.40;;;0.55;;
823;SDS011;373;49.342;8.146;2023-03-14T15:18:39;1.17;;;0.45;;
823;SDS011;373;49.342;8.146;2023-03-14T15:21:08;2.03;;;0.77;;
823;SDS011;373;49.342;8.146;2023-03-14T15:23:37;1.80;;;0.50;;
823;SDS011;373;49.342;8.146;2023-03-14T15:26:05;0.80;;;0.50;;
823;SDS011;373;49.342;8.146;2023-03-14T15:28:40;2.88;;;0.70;;
823;SDS011;373;49.342;8.146;2023-03-14T15:31:08;1.40;;;0.63;;
823;SDS011;373;49.342;8.146;2023-03-14T15:33:36;1.73;;;0.63;;
823;SDS011;373;49.342;8.146;2023-03-14T15:36:04;1.13;;;0.68;;
823;SDS011;373;49.342;8.146;2023-03-14T15:38:36;4.63;;;1.35;;
823;SDS011;373;49.342;8.146;2023-03-14T15:41:04;2.15;;;0.50;;
823;SDS011;373;49.342;8.146;2023-03-14T15:43:31;1.88;;;0.98;;
823;SDS011;373;49.342;8.146;2023-03-14T15:45:58;1.92;;;0.80;;
823;SDS011;373;49.342;8.146;2023-03-14T15:48:25;2.50;;;0.57;;
823;SDS011;373;49.342;8.146;2023-03-14T15:50:52;1.48;;;0.57;;
823;SDS011;373;49.342;8.146;2023-03-14T15:53:20;1.40;;;0.90;;
823;SDS011;373;49.342;8.146;2023-03-14T15:55:48;2.63;;;0.90;;
823;SDS011;373;49.342;8.146;2023-03-14T15:58:16;1.45;;;0.68;;
823;SDS011;373;49.342;8.146;2023-03-14T16:00:45;2.45;;;0.75;;
823;SDS011;373;49.342;8.146;2023-03-14T16:03:12;2.13;;;0.68;;
823;SDS011;373;49.342;8.146;2023-03-14T16:05:39;4.20;;;0.80;;
823;SDS011;373;49.342;8.146;2023-03-14T16:08:07;2.03;;;0.77;;
823;SDS011;373;49.342;8.146;2023-03-14T16:10:34;2.65;;;1.02;;
823;SDS011;373;49.342;8.146;2023-03-14T16:13:02;2.05;;;0.80;;
823;SDS011;373;49.342;8.146;2023-03-14T16:15:30;2.47;;;0.55;;
823;SDS011;373;49.342;8.146;2023-03-14T16:17:57;2.25;;;1.00;;
823;SDS011;373;49.342;8.146;2023-03-14T16:20:24;2.72;;;0.73;;